Time;durP1;ratioP1;P1;durP2;ratioP2;P2;SDS_P1;SDS_P2;PMS_P1;PMS_P2;Temp;Humidity;BMP_temperature;BMP_pressure;BME280_temperature;BME280_humidity;BME280_pressure;Samples;Min_cycle;Max_cycle;Signal;HPM_P1;HPM_P2
2024/01/09 00:01:17;;;;;;;;;;;;;;;0.32;90.53;96345.13;5055043;28;19920;-67
2024/01/09 00:03:44;;;;;;;;;;;;;;;0.36;90.44;96339.09;5054951;28;19921;-67
2024/01/09 00:06:13;;;;;;;;;;;;;;;0.30;90.27;96333.13;5054806;28;19920;-64
2024/01/09 00:08:40;;;;;;;;;;;;;;;0.20;90.38;96335.69;5054939;28;19979;-65
2024/01/09 00:11:08;;;;;;;;;;;;;;;0.09;90.91;96332.25;5054643;28;20386;-65
2024/01/09 00:13:35;;;;;;;;;;;;;;;0.01;90.43;96339.09;5054727;28;20015;-67
2024/01/09 00:16:02;;;;;;;;;;;;;;;-0.07;90.92;96337.38;5054544;28;19971;-67
2024/01/09 00:18:28;;;;;;;;;;;;;;;-0.15;90.91;96345.09;5054667;28;19921;-68
2024/01/09 00:20:55;;;;;;;;;;;;;;;-0.24;91.42;96349.38;5054454;28;19920;-67
2024/01/09 00:23:22;;;;;;;;;;;;;;;-0.19;91.91;96347.66;5054461;28;19920;-65
2024/01/09 00:25:48;;;;;;;;;;;;;;;-0.18;90.77;96344.25;5054492;28;20016;-66
2024/01/09 00:28:16;;;;;;;;;;;;;;;-0.20;89.27;96356.22;5054476;28;20018;-66
2024/01/09 00:30:43;;;;;;;;;;;;;;;-0.16;89.90;96356.25;5054496;28;19974;-66
2024/01/09 00:33:10;;;;;;;;;;;;;;;-0.06;89.88;96354.53;5054306;28;19921;-64
2024/01/09 00:35:37;;;;;;;;;;;;;;;-0.14;89.31;96363.97;5054158;28;20455;-64
2024/01/09 00:38:03;;;;;;;;;;;;;;;-0.09;88.65;96375.09;5054154;28;20015;-66
2024/01/09 00:40:30;;;;;;;;;;;;;;;-0.02;89.67;96375.97;5054122;28;19920;-66
2024/01/09 00:42:57;;;;;;;;;;;;;;;0.01;90.33;96378.56;5054120;28;19970;-69
2024/01/09 00:45:25;;;;;;;;;;;;;;;0.05;90.17;96374.25;5054015;28;19924;-67
2024/01/09 00:47:52;;;;;;;;;;;;;;;0.12;90.32;96373.44;5054027;28;20011;-66
2024/01/09 00:50:18;;;;;;;;;;;;;;;0.22;90.36;96364.84;5054188;28;20008;-65
2024/01/09 00:52:45;;;;;;;;;;;;;;;0.17;88.62;96369.13;5054106;28;20015;-68
2024/01/09 00:55:13;;;;;;;;;;;;;;;0.04;86.87;96364.81;5053900;28;19920;-63
2024/01/09 00:57:39;;;;;;;;;;;;;;;0.01;86.12;96365.69;5053947;28;19929;-65
2024/01/09 01:00:07;;;;;;;;;;;;;;;-0.05;86.42;96375.97;5053954;28;19964;-65
2024/01/09 01:02:35;;;;;;;;;;;;;;;-0.04;87.12;96378.53;5053797;28;19920;-69
2024/01/09 01:05:02;;;;;;;;;;;;;;;0.07;87.46;96380.28;5053727;28;20367;-69
2024/01/09 01:07:28;;;;;;;;;;;;;;;0.08;87.57;96376.84;5053732;28;19921;-67
2024/01/09 01:09:55;;;;;;;;;;;;;;;0.00;87.33;96379.41;5053854;28;19921;-65
2024/01/09 01:12:22;;;;;;;;;;;;;;;-0.03;87.19;96380.25;5053654;28;19920;-70
2024/01/09 01:14:48;;;;;;;;;;;;;;;-0.06;86.22;96384.56;5053819;28;20017;-63
2024/01/09 01:17:15;;;;;;;;;;;;;;;-0.20;87.16;96389.66;5053728;28;19925;-65
2024/01/09 01:19:44;;;;;;;;;;;;;;;-0.24;87.92;96387.94;5053508;28;19979;-66
2024/01/09 01:22:10;;;;;;;;;;;;;;;-0.14;88.23;96393.13;5053489;28;19986;-65
2024/01/09 01:24:37;;;;;;;;;;;;;;;-0.17;87.73;96393.09;5053433;28;20321;-68
2024/01/09 01:27:04;;;;;;;;;;;;;;;-0.18;87.20;96393.09;5053459;28;19928;-68
2024/01/09 01:29:31;;;;;;;;;;;;;;;-0.29;85.04;96395.63;5053321;28;19968;-67
2024/01/09 01:31:57;;;;;;;;;;;;;;;-0.28;86.00;96402.47;5053404;28;20018;-66
2024/01/09 01:34:24;;;;;;;;;;;;;;;-0.38;83.65;96396.47;5053403;28;20283;-68
2024/01/09 01:36:52;;;;;;;;;;;;;;;-0.40;84.75;96409.31;5053532;28;19924;-67
2024/01/09 01:39:19;;;;;;;;;;;;;;;-0.44;87.22;96406.72;5053335;28;20011;-62
2024/01/09 01:41:46;;;;;;;;;;;;;;;-0.43;88.36;96419.59;5053327;28;20291;-64
2024/01/09 01:44:15;;;;;;;;;;;;;;;-0.42;88.74;96416.16;5053195;28;20326;-63
2024/01/09 01:46:42;;;;;;;;;;;;;;;-0.32;88.98;96427.34;5053584;28;20018;-66
2024/01/09 01:49:09;;;;;;;;;;;;;;;-0.43;86.46;96432.44;5057369;28;19960;-63
2024/01/09 01:51:35;;;;;;;;;;;;;;;-0.61;84.01;96433.22;5057356;28;19921;-67
2024/01/09 01:54:04;;;;;;;;;;;;;;;-0.80;82.07;96429.69;5057273;28;19932;-68
2024/01/09 01:56:31;;;;;;;;;;;;;;;-0.99;83.34;96418.47;5057275;28;19928;-65
2024/01/09 01:58:59;;;;;;;;;;;;;;;-1.08;85.05;96421.84;5057282;28;20292;-66
2024/01/09 02:01:25;;;;;;;;;;;;;;;-1.02;85.93;96421.88;5057253;28;20051;-68
2024/01/09 02:03:53;;;;;;;;;;;;;;;-0.95;86.52;96426.22;5057138;28;20011;-67
2024/01/09 02:06:20;;;;;;;;;;;;;;;-0.85;87.25;96431.41;5057146;28;19986;-67
2024/01/09 02:08:47;;;;;;;;;;;;;;;-0.85;88.45;96426.25;5057024;28;19967;-68
2024/01/09 02:11:16;;;;;;;;;;;;;;;-0.98;85.89;96423.63;5057012;28;20015;-65
2024/01/09 02:13:43;;;;;;;;;;;;;;;-0.95;84.24;96431.34;5056932;28;19951;-65
2024/01/09 02:16:10;;;;;;;;;;;;;;;-0.93;84.88;96434.75;5056834;28;19928;-69
2024/01/09 02:18:37;;;;;;;;;;;;;;;-0.98;86.27;96441.59;5056785;28;19921;-65
2024/01/09 02:21:03;;;;;;;;;;;;;;;-0.97;87.18;96447.59;5056612;28;19925;-65
2024/01/09 02:23:30;;;;;;;;;;;;;;;-1.32;81.90;96441.38;5056715;28;19974;-68
2024/01/09 02:25:58;;;;;;;;;;;;;;;-1.62;82.40;96445.41;5056888;28;19920;-65
2024/01/09 02:28:28;;;;;;;;;;;;;;;-1.74;84.16;96444.47;5056747;28;20367;-62
2024/01/09 02:30:57;;;;;;;;;;;;;;;-1.62;84.76;96440.28;5056760;28;19921;-64
2024/01/09 02:33:25;;;;;;;;;;;;;;;-1.56;85.57;96427.50;5056615;28;19921;-65
2024/01/09 02:35:51;;;;;;;;;;;;;;;-1.55;85.10;96427.50;5056623;28;19974;-69
2024/01/09 02:38:18;;;;;;;;;;;;;;;-1.56;85.00;96412.94;5056404;28;20405;-66
2024/01/09 02:40:45;;;;;;;;;;;;;;;-1.55;86.43;96408.69;5056419;28;19920;-64
2024/01/09 02:43:11;;;;;;;;;;;;;;;-1.67;85.67;96412.00;5056431;28;19967;-64
2024/01/09 02:45:38;;;;;;;;;;;;;;;-1.75;86.12;96411.94;5056392;28;19925;-70
2024/01/09 02:48:07;;;;;;;;;;;;;;;-1.77;86.65;96418.78;5056305;28;19925;-62
2024/01/09 02:50:34;;;;;;;;;;;;;;;-1.91;86.40;96422.06;5056404;28;20003;-66
2024/01/09 02:53:01;;;;;;;;;;;;;;;-1.98;85.36;96412.59;5056300;28;20271;-65
2024/01/09 02:55:28;;;;;;;;;;;;;;;-1.94;85.68;96414.34;5056167;28;20382;-64
2024/01/09 02:57:55;;;;;;;;;;;;;;;-2.00;85.84;96406.59;5055900;28;19920;-67
2024/01/09 03:00:21;;;;;;;;;;;;;;;-1.96;86.80;96399.81;5054861;28;19974;-66
2024/01/09 03:02:49;;;;;;;;;;;;;;;-2.14;84.90;96400.47;5054846;28;20378;-64
2024/01/09 03:05:17;;;;;;;;;;;;;;;-2.16;86.12;96401.31;5055901;28;19920;-65
2024/01/09 03:07:44;;;;;;;;;;;;;;;-2.20;85.25;96403.84;5055964;28;19967;-66
2024/01/09 03:10:11;;;;;;;;;;;;;;;-2.33;84.73;96402.84;5055973;28;19921;-64
2024/01/09 03:12:37;;;;;;;;;;;;;;;-2.32;83.32;96402.00;5055846;28;20256;-67
2024/01/09 03:15:04;;;;;;;;;;;;;;;-2.29;85.49;96405.44;5055787;28;20386;-67
2024/01/09 03:17:31;;;;;;;;;;;;;;;-2.27;84.85;96408.03;5055902;28;19925;-66
2024/01/09 03:19:58;;;;;;;;;;;;;;;-2.32;84.01;96418.22;5055704;28;19921;-67
2024/01/09 03:22:27;;;;;;;;;;;;;;;-2.30;83.81;96441.31;5055439;28;20379;-64
2024/01/09 03:24:54;;;;;;;;;;;;;;;-2.41;82.78;96466.81;5055525;28;19924;-64
2024/01/09 03:27:20;;;;;;;;;;;;;;;-2.41;82.89;96467.69;5055513;28;20386;-66
2024/01/09 03:29:47;;;;;;;;;;;;;;;-2.45;82.64;96471.06;5055689;28;20019;-65
2024/01/09 03:32:14;;;;;;;;;;;;;;;-2.35;82.47;96494.25;5055475;28;19921;-66
2024/01/09 03:34:41;;;;;;;;;;;;;;;-2.45;80.06;96500.94;5055430;28;20374;-66
2024/01/09 03:37:09;;;;;;;;;;;;;;;-2.51;80.58;96488.91;5055484;28;19921;-66
2024/01/09 03:39:38;;;;;;;;;;;;;;;-2.51;81.86;96483.78;5055320;28;19920;-64
2024/01/09 03:42:05;;;;;;;;;;;;;;;-2.55;79.86;96476.91;5055353;28;20289;-65
2024/01/09 03:44:32;;;;;;;;;;;;;;;-2.66;80.95;96476.75;5055315;28;19921;-67
2024/01/09 03:46:59;;;;;;;;;;;;;;;-2.63;81.65;96491.28;5055165;28;19924;-63
2024/01/09 03:49:26;;;;;;;;;;;;;;;-2.61;80.75;96493.06;5055176;28;19920;-67
2024/01/09 03:51:52;;;;;;;;;;;;;;;-2.63;81.59;96506.66;5055002;28;19925;-66
2024/01/09 03:54:19;;;;;;;;;;;;;;;-2.62;79.82;96534.88;5055233;28;19951;-65
2024/01/09 03:56:47;;;;;;;;;;;;;;;-2.51;80.85;96557.22;5055239;28;19921;-66
2024/01/09 03:59:14;;;;;;;;;;;;;;;-2.40;81.44;96565.94;5055028;28;19964;-65
2024/01/09 04:01:41;;;;;;;;;;;;;;;-2.28;83.51;96567.78;5055108;28;19975;-68
2024/01/09 04:04:07;;;;;;;;;;;;;;;-2.23;79.81;96561.00;5054982;28;20299;-65
2024/01/09 04:06:35;;;;;;;;;;;;;;;-2.31;81.06;96571.19;5054967;28;20351;-70
2024/01/09 04:09:02;;;;;;;;;;;;;;;-2.32;80.63;96584.81;5054753;28;19921;-66
2024/01/09 04:11:29;;;;;;;;;;;;;;;-2.44;83.26;96590.63;5054413;28;19921;-67
2024/01/09 04:13:57;;;;;;;;;;;;;;;-2.38;83.63;96591.56;5054747;28;19921;-67
2024/01/09 04:16:24;;;;;;;;;;;;;;;-2.38;84.46;96589.00;5054613;28;19975;-68
2024/01/09 04:18:51;;;;;;;;;;;;;;;-2.29;84.72;96584.00;5054628;28;19921;-68
2024/01/09 04:21:17;;;;;;;;;;;;;;;-2.31;81.46;96578.00;5054338;28;19927;-66
2024/01/09 04:23:44;;;;;;;;;;;;;;;-2.36;78.09;96583.06;5054568;28;19925;-67
2024/01/09 04:26:11;;;;;;;;;;;;;;;-2.58;77.99;96581.91;5054455;28;19927;-67
2024/01/09 04:28:38;;;;;;;;;;;;;;;-2.76;78.28;96578.22;5054473;28;19921;-66
2024/01/09 04:31:06;;;;;;;;;;;;;;;-2.95;79.22;96589.88;5054384;28;19982;-69
2024/01/09 04:33:34;;;;;;;;;;;;;;;-3.06;78.73;96589.69;5054390;28;20297;-67
2024/01/09 04:36:01;;;;;;;;;;;;;;;-3.12;78.54;96575.09;5054300;28;19951;-65
2024/01/09 04:38:27;;;;;;;;;;;;;;;-3.21;79.55;96570.69;5054185;28;19920;-66
2024/01/09 04:40:54;;;;;;;;;;;;;;;-3.19;80.31;96593.75;5054244;28;19926;-63
2024/01/09 04:43:21;;;;;;;;;;;;;;;-3.23;80.54;96599.63;5054118;28;19921;-63
2024/01/09 04:45:47;;;;;;;;;;;;;;;-3.25;79.89;96591.94;5054117;28;20014;-63
2024/01/09 04:48:16;;;;;;;;;;;;;;;-3.34;79.47;96586.69;5053944;28;20294;-65
2024/01/09 04:50:42;;;;;;;;;;;;;;;-3.35;79.69;96592.59;5054099;28;20015;-65
2024/01/09 04:53:09;;;;;;;;;;;;;;;-3.42;79.65;96599.31;5054042;28;20437;-65
2024/01/09 04:55:36;;;;;;;;;;;;;;;-3.37;81.48;96589.19;5054140;28;19927;-64
2024/01/09 04:58:02;;;;;;;;;;;;;;;-3.43;80.50;96583.09;5053844;28;19932;-67
2024/01/09 05:00:29;;;;;;;;;;;;;;;-3.51;81.66;96584.69;5053948;28;19978;-67
2024/01/09 05:02:56;;;;;;;;;;;;;;;-3.50;81.31;96590.63;5053730;28;19974;-67
2024/01/09 05:05:24;;;;;;;;;;;;;;;-3.50;79.73;96591.50;5053609;28;19927;-67
2024/01/09 05:07:50;;;;;;;;;;;;;;;-3.50;80.72;96601.75;5053773;28;19967;-67
2024/01/09 05:10:17;;;;;;;;;;;;;;;-3.50;80.13;96613.66;5053795;28;20028;-65
2024/01/09 05:12:44;;;;;;;;;;;;;;;-3.55;79.27;96636.63;5053645;28;19974;-68
2024/01/09 05:15:11;;;;;;;;;;;;;;;-3.68;79.54;96633.81;5053576;28;19920;-66
2024/01/09 05:17:38;;;;;;;;;;;;;;;-3.74;79.98;96626.00;5053547;28;19928;-68
2024/01/09 05:20:05;;;;;;;;;;;;;;;-3.77;80.43;96623.38;5053666;28;20053;-67
2024/01/09 05:22:35;;;;;;;;;;;;;;;-3.85;80.24;96628.34;5052619;28;20311;-67
2024/01/09 05:25:02;;;;;;;;;;;;;;;-3.79;81.21;96622.53;5053436;28;19921;-65
2024/01/09 05:27:29;;;;;;;;;;;;;;;-3.70;82.22;96632.06;5053468;28;19967;-67
2024/01/09 05:29:55;;;;;;;;;;;;;;;-3.64;82.89;96629.63;5053499;28;19921;-67
2024/01/09 05:32:22;;;;;;;;;;;;;;;-3.56;81.81;96627.19;5053341;28;20374;-67
2024/01/09 05:34:49;;;;;;;;;;;;;;;-3.55;80.84;96627.22;5053371;28;20016;-68
2024/01/09 05:37:16;;;;;;;;;;;;;;;-3.54;80.38;96628.09;5053436;28;19986;-67
2024/01/09 05:39:45;;;;;;;;;;;;;;;-3.59;78.76;96635.69;5053394;28;19924;-67
2024/01/09 05:42:12;;;;;;;;;;;;;;;-3.68;79.92;96630.38;5053480;28;19921;-65
2024/01/09 05:44:39;;;;;;;;;;;;;;;-3.78;80.89;96631.91;5053375;28;19974;-68
2024/01/09 05:47:06;;;;;;;;;;;;;;;-3.77;80.47;96633.63;5053411;28;19920;-68
2024/01/09 05:49:33;;;;;;;;;;;;;;;-3.74;81.16;96640.47;5053314;28;20029;-67
2024/01/09 05:52:00;;;;;;;;;;;;;;;-3.68;81.32;96640.59;5053321;28;19978;-65
2024/01/09 05:54:27;;;;;;;;;;;;;;;-3.60;81.10;96631.41;5053153;28;20340;-65
2024/01/09 05:56:55;;;;;;;;;;;;;;;-3.64;80.49;96618.53;5053274;28;19967;-65
2024/01/09 05:59:22;;;;;;;;;;;;;;;-3.70;80.22;96617.56;5053224;28;19963;-68
2024/01/09 06:01:49;;;;;;;;;;;;;;;-3.66;79.85;96622.75;5053243;28;19928;-65
2024/01/09 06:04:16;;;;;;;;;;;;;;;-3.73;80.62;96612.38;5053515;28;20341;-65
2024/01/09 06:06:43;;;;;;;;;;;;;;;-3.79;80.77;96625.06;5053108;28;19920;-67
2024/01/09 06:09:10;;;;;;;;;;;;;;;-3.90;80.00;96626.53;5053164;28;20278;-63
2024/01/09 06:11:37;;;;;;;;;;;;;;;-3.91;81.00;96648.69;5053237;28;19974;-65
2024/01/09 06:14:05;;;;;;;;;;;;;;;-3.77;82.27;96648.13;5053116;28;19921;-64
2024/01/09 06:16:31;;;;;;;;;;;;;;;-3.71;82.06;96633.75;5052977;28;19963;-64
2024/01/09 06:18:58;;;;;;;;;;;;;;;-3.63;81.79;96640.69;5052925;28;20015;-63
2024/01/09 06:21:25;;;;;;;;;;;;;;;-3.60;80.42;96651.88;5052816;28;19995;-65
2024/01/09 06:23:52;;;;;;;;;;;;;;;-3.55;80.40;96665.59;5053040;28;19921;-65
2024/01/09 06:26:18;;;;;;;;;;;;;;;-3.45;80.70;96676.03;5053020;28;19975;-65
2024/01/09 06:28:45;;;;;;;;;;;;;;;-3.40;79.27;96682.09;5052881;28;20341;-64
2024/01/09 06:31:14;;;;;;;;;;;;;;;-3.46;79.08;96687.94;5052936;28;20370;-64
2024/01/09 06:33:42;;;;;;;;;;;;;;;-3.38;78.13;96700.88;5054407;28;19964;-70
2024/01/09 06:36:09;;;;;;;;;;;;;;;-3.37;77.84;96701.75;5056464;28;20401;-64
2024/01/09 06:38:36;;;;;;;;;;;;;;;-3.35;77.67;96730.78;5056512;28;19921;-64
2024/01/09 06:41:03;;;;;;;;;;;;;;;-3.44;77.65;96739.13;5056557;28;19925;-63
2024/01/09 06:43:30;;;;;;;;;;;;;;;-3.45;77.44;96735.72;5056567;28;19932;-66
2024/01/09 06:45:56;;;;;;;;;;;;;;;-3.51;77.87;96740.72;5056364;28;19928;-65
2024/01/09 06:48:24;;;;;;;;;;;;;;;-3.48;76.81;96745.91;5056400;28;20015;-67
2024/01/09 06:50:52;;;;;;;;;;;;;;;-3.47;77.75;96744.19;5056440;28;20378;-66
2024/01/09 06:53:18;;;;;;;;;;;;;;;-3.41;78.21;96752.00;5056307;28;19921;-65
2024/01/09 06:55:45;;;;;;;;;;;;;;;-3.39;77.28;96758.03;5056228;28;20035;-65
2024/01/09 06:58:12;;;;;;;;;;;;;;;-3.41;77.40;96763.94;5056219;28;19924;-68
2024/01/09 07:00:39;;;;;;;;;;;;;;;-3.48;76.50;96757.81;5056163;28;20442;-69
2024/01/09 07:03:06;;;;;;;;;;;;;;;-3.43;77.47;96757.06;5056029;28;20370;-64
2024/01/09 07:05:34;;;;;;;;;;;;;;;-3.50;75.38;96762.03;5055865;28;20442;-66
2024/01/09 07:08:00;;;;;;;;;;;;;;;-3.62;74.04;96760.94;5056032;28;19921;-67
2024/01/09 07:10:26;;;;;;;;;;;;;;;-3.69;74.77;96766.75;5055980;28;19998;-64
2024/01/09 07:12:53;;;;;;;;;;;;;;;-3.73;75.24;96773.50;5055871;28;20382;-68
2024/01/09 07:15:20;;;;;;;;;;;;;;;-3.87;72.55;96785.13;5055876;28;19975;-68
2024/01/09 07:17:47;;;;;;;;;;;;;;;-3.91;72.81;96784.19;5055770;28;19920;-67
2024/01/09 07:20:14;;;;;;;;;;;;;;;-3.95;73.13;96783.25;5055784;28;19921;-67
2024/01/09 07:22:42;;;;;;;;;;;;;;;-3.97;74.59;96776.38;5055597;28;19924;-68
2024/01/09 07:25:09;;;;;;;;;;;;;;;-3.90;75.24;96779.94;5055578;28;20461;-66
2024/01/09 07:27:36;;;;;;;;;;;;;;;-3.92;74.50;96789.28;5055577;28;19935;-68
2024/01/09 07:30:03;;;;;;;;;;;;;;;-3.96;73.44;96799.44;5055607;28;19928;-65
2024/01/09 07:32:30;;;;;;;;;;;;;;;-4.09;71.96;96797.41;5055695;28;19920;-65
2024/01/09 07:34:57;;;;;;;;;;;;;;;-4.11;72.39;96807.59;5055485;28;20326;-71
2024/01/09 07:37:24;;;;;;;;;;;;;;;-4.22;71.91;96814.97;5055496;28;20430;-66
2024/01/09 07:39:53;;;;;;;;;;;;;;;-4.25;71.81;96824.28;5055395;28;19925;-64
2024/01/09 07:42:20;;;;;;;;;;;;;;;-4.28;72.51;96827.59;5055421;28;20008;-67
2024/01/09 07:44:47;;;;;;;;;;;;;;;-4.42;71.83;96821.28;5054434;28;20309;-68
2024/01/09 07:47:13;;;;;;;;;;;;;;;-4.51;71.89;96816.81;5055156;28;19928;-70
2024/01/09 07:49:41;;;;;;;;;;;;;;;-4.54;72.19;96826.94;5055281;28;19924;-68
2024/01/09 07:52:07;;;;;;;;;;;;;;;-4.48;73.73;96812.63;5055343;28;20322;-64
2024/01/09 07:54:34;;;;;;;;;;;;;;;-4.57;71.86;96817.53;5055022;28;20355;-67
2024/01/09 07:57:02;;;;;;;;;;;;;;;-4.64;71.31;96819.03;5055107;28;19928;-65
2024/01/09 07:59:29;;;;;;;;;;;;;;;-4.64;72.18;96823.28;5055065;28;19967;-70
2024/01/09 08:01:56;;;;;;;;;;;;;;;-4.52;72.79;96813.38;5055029;28;19947;-64
2024/01/09 08:04:23;;;;;;;;;;;;;;;-4.57;71.74;96836.25;5054902;28;20302;-68
2024/01/09 08:06:50;;;;;;;;;;;;;;;-4.57;72.83;96835.41;5054955;28;19959;-67
2024/01/09 08:09:18;;;;;;;;;;;;;;;-4.48;72.96;96838.16;5054686;28;19931;-70
2024/01/09 08:11:45;;;;;;;;;;;;;;;-4.45;72.47;96845.06;5054818;28;20371;-64
2024/01/09 08:14:13;;;;;;;;;;;;;;;-4.41;71.42;96849.44;5054764;28;19921;-65
2024/01/09 08:16:41;;;;;;;;;;;;;;;-4.26;74.37;96848.09;5054646;28;19924;-66
2024/01/09 08:19:08;;;;;;;;;;;;;;;-4.27;72.58;96854.03;5054596;28;19920;-66
2024/01/09 08:21:35;;;;;;;;;;;;;;;-4.26;72.06;96871.06;5054097;28;19999;-69
2024/01/09 08:24:02;;;;;;;;;;;;;;;-4.41;69.41;96876.66;5054610;28;19928;-67
2024/01/09 08:26:30;;;;;;;;;;;;;;;-4.34;71.95;96868.31;5054471;28;19921;-69
2024/01/09 08:28:59;;;;;;;;;;;;;;;-4.34;71.22;96876.84;5054385;28;19928;-63
2024/01/09 08:31:28;;;;;;;;;;;;;;;-4.23;72.06;96873.72;5054377;28;20370;-67
2024/01/09 08:33:54;;;;;;;;;;;;;;;-4.27;70.46;96866.81;5054381;28;19974;-67
2024/01/09 08:36:21;;;;;;;;;;;;;;;-4.38;70.38;96863.97;5054213;28;20034;-70
2024/01/09 08:38:48;;;;;;;;;;;;;;;-4.50;70.03;96869.59;5054296;28;19921;-65
2024/01/09 08:41:17;;;;;;;;;;;;;;;-4.51;70.49;96878.97;5054339;28;19943;-64
2024/01/09 08:43:43;;;;;;;;;;;;;;;-4.53;70.78;96872.09;5054122;28;20431;-68
2024/01/09 08:46:10;;;;;;;;;;;;;;;-4.53;70.53;96874.63;5054199;28;19968;-66
2024/01/09 08:48:38;;;;;;;;;;;;;;;-4.54;69.78;96870.34;5054149;28;19927;-65
2024/01/09 08:51:06;;;;;;;;;;;;;;;-4.55;71.29;96871.19;5054127;28;19921;-68
2024/01/09 08:53:32;;;;;;;;;;;;;;;-4.58;68.84;96872.81;5053884;28;19974;-65
2024/01/09 08:55:59;;;;;;;;;;;;;;;-4.59;71.00;96875.34;5053798;28;19931;-71
2024/01/09 08:58:26;;;;;;;;;;;;;;;-4.53;70.66;96880.63;5053916;28;20374;-67
2024/01/09 09:00:52;;;;;;;;;;;;;;;-4.55;68.30;96879.69;5053858;28;20013;-65
2024/01/09 09:03:19;;;;;;;;;;;;;;;-4.60;68.87;96886.38;5053863;28;19920;-69
2024/01/09 09:05:47;;;;;;;;;;;;;;;-4.60;69.45;96891.50;5053813;28;20421;-66
2024/01/09 09:08:14;;;;;;;;;;;;;;;-4.64;68.92;96903.31;5053762;28;19928;-65
2024/01/09 09:10:41;;;;;;;;;;;;;;;-4.72;67.72;96912.44;5053706;28;19921;-65
2024/01/09 09:13:08;;;;;;;;;;;;;;;-4.74;67.44;96914.97;5053856;28;19920;-65
2024/01/09 09:15:34;;;;;;;;;;;;;;;-4.73;69.54;96913.28;5053556;28;20007;-69
2024/01/09 09:18:00;;;;;;;;;;;;;;;-4.73;68.40;96903.91;5053648;28;19991;-68
2024/01/09 09:20:27;;;;;;;;;;;;;;;-4.70;68.48;96909.09;5053563;28;20034;-67
2024/01/09 09:22:56;;;;;;;;;;;;;;;-4.65;70.13;96895.59;5053283;28;19921;-67
2024/01/09 09:25:23;;;;;;;;;;;;;;;-4.61;68.53;96908.50;5053504;28;20003;-68
2024/01/09 09:27:49;;;;;;;;;;;;;;;-4.69;67.60;96894.66;5053527;28;19948;-61
2024/01/09 09:30:16;;;;;;;;;;;;;;;-4.75;68.46;96895.38;5053610;28;19944;-66
2024/01/09 09:32:43;;;;;;;;;;;;;;;-4.73;68.01;96888.59;5053402;28;19921;-70
2024/01/09 09:35:10;;;;;;;;;;;;;;;-4.63;68.68;96891.41;5053496;28;19944;-63
2024/01/09 09:37:37;;;;;;;;;;;;;;;-4.65;66.60;96891.38;5053316;28;19920;-68
2024/01/09 09:40:06;;;;;;;;;;;;;;;-4.70;65.75;96895.47;5053381;28;20259;-67
2024/01/09 09:42:34;;;;;;;;;;;;;;;-4.55;67.45;96892.47;5053340;28;20277;-67
2024/01/09 09:45:01;;;;;;;;;;;;;;;-4.50;67.42;96887.50;5053268;28;20379;-66
2024/01/09 09:47:29;;;;;;;;;;;;;;;-4.53;66.95;96893.38;5053359;28;19920;-68
2024/01/09 09:49:56;;;;;;;;;;;;;;;-4.52;66.43;96884.03;5053263;28;19920;-68
2024/01/09 09:52:25;;;;;;;;;;;;;;;-4.59;65.54;96888.09;5053260;28;19920;-70
2024/01/09 09:54:53;;;;;;;;;;;;;;;-4.63;66.50;96879.50;5053202;28;19975;-67
2024/01/09 09:57:22;;;;;;;;;;;;;;;-4.49;65.82;96879.03;5053184;28;19974;-64
2024/01/09 09:59:48;;;;;;;;;;;;;;;-4.35;66.02;96879.38;5053214;28;20015;-66
2024/01/09 10:02:21;;;;;;;;;;;;;;;-4.39;65.06;96892.91;5053248;28;19928;-67
2024/01/09 10:04:51;;;;;;;;;;;;;;;-4.45;62.17;96896.16;5053191;28;19925;-71
2024/01/09 10:07:20;;;;;;;;;;;;;;;-4.50;63.16;96890.91;5053117;28;19920;-69
2024/01/09 10:09:51;;;;;;;;;;;;;;;-4.29;63.55;96888.88;5056583;28;20387;-65
2024/01/09 10:12:19;;;;;;;;;;;;;;;-4.34;62.37;96876.84;5057157;28;20451;-66
2024/01/09 10:15:08;;;;;;;;;;;;;;;-4.19;63.70;96872.97;5057096;28;19943;-65
2024/01/09 10:17:35;;;;;;;;;;;;;;;-4.25;62.13;96877.94;5056840;28;19943;-67
2024/01/09 10:20:03;;;;;;;;;;;;;;;-4.20;63.31;96884.03;5056858;28;19931;-70
2024/01/09 10:22:31;;;;;;;;;;;;;;;-4.25;62.43;96885.59;5056777;28;19967;-65
2024/01/09 10:24:58;;;;;;;;;;;;;;;-4.22;61.78;96893.31;5056826;28;19928;-66
2024/01/09 10:27:25;;;;;;;;;;;;;;;-4.20;62.35;96900.22;5056842;28;19921;-64
2024/01/09 10:29:51;;;;;;;;;;;;;;;-4.06;63.21;96895.44;5056690;28;19982;-68
2024/01/09 10:32:19;;;;;;;;;;;;;;;-3.97;62.12;96897.38;5056790;28;19928;-65
2024/01/09 10:34:46;;;;;;;;;;;;;;;-3.85;63.68;96898.53;5056704;28;19921;-68
2024/01/09 10:37:13;;;;;;;;;;;;;;;-3.77;63.04;96906.38;5056360;28;19920;-64
2024/01/09 10:39:42;;;;;;;;;;;;;;;-3.77;60.67;96912.34;5056590;28;19932;-68
2024/01/09 10:42:10;;;;;;;;;;;;;;;-3.86;62.81;96907.88;5056521;28;20288;-65
2024/01/09 10:44:39;;;;;;;;;;;;;;;-3.89;61.79;96919.72;5056439;28;20325;-67
2024/01/09 10:47:09;;;;;;;;;;;;;;;-3.96;62.39;96921.25;5056434;28;19947;-69
2024/01/09 10:49:39;;;;;;;;;;;;;;;-3.96;62.85;96916.16;5056355;28;20294;-65
2024/01/09 10:52:07;;;;;;;;;;;;;;;-3.94;62.65;96911.94;5056277;28;19960;-67
2024/01/09 10:54:35;;;;;;;;;;;;;;;-3.93;62.81;96906.00;5056326;28;19927;-64
2024/01/09 10:57:02;;;;;;;;;;;;;;;-3.79;62.91;96905.47;5056190;28;19928;-68
2024/01/09 10:59:30;;;;;;;;;;;;;;;-3.78;60.51;96910.63;5056060;28;20367;-65
2024/01/09 11:01:57;;;;;;;;;;;;;;;-3.69;61.38;96915.97;5056205;28;19964;-65
2024/01/09 11:04:24;;;;;;;;;;;;;;;-3.65;61.33;96910.94;5056040;28;19994;-62
2024/01/09 11:06:54;;;;;;;;;;;;;;;-3.75;60.64;96917.50;5056071;28;19920;-65
2024/01/09 11:09:21;;;;;;;;;;;;;;;-3.72;62.47;96905.66;5056104;28;19920;-68
2024/01/09 11:11:49;;;;;;;;;;;;;;;-3.72;61.66;96902.25;5055912;28;19974;-67
2024/01/09 11:14:16;;;;;;;;;;;;;;;-3.76;59.74;96914.09;5055799;28;19956;-68
2024/01/09 11:16:45;;;;;;;;;;;;;;;-3.79;60.51;96902.91;5055809;28;19939;-66
2024/01/09 11:19:13;;;;;;;;;;;;;;;-3.88;61.95;96906.13;5055456;28;19921;-67
2024/01/09 11:21:40;;;;;;;;;;;;;;;-3.73;63.55;96909.03;5054899;28;19921;-65
2024/01/09 11:24:08;;;;;;;;;;;;;;;-3.64;62.57;96907.53;5055728;28;19920;-71
2024/01/09 11:26:39;;;;;;;;;;;;;;;-3.73;61.80;96916.69;5055622;28;20461;-68
2024/01/09 11:29:05;;;;;;;;;;;;;;;-3.98;59.58;96922.91;5055653;28;19920;-64
2024/01/09 11:31:35;;;;;;;;;;;;;;;-3.91;61.77;96904.34;5055628;28;20019;-71
2024/01/09 11:34:02;;;;;;;;;;;;;;;-3.91;60.23;96901.78;5055513;28;19921;-63
2024/01/09 11:36:29;;;;;;;;;;;;;;;-3.76;61.90;96908.13;5055325;28;19974;-66
2024/01/09 11:38:57;;;;;;;;;;;;;;;-3.63;62.43;96911.81;5055538;28;19925;-64
2024/01/09 11:41:31;;;;;;;;;;;;;;;-3.65;60.92;96919.47;5055457;28;20016;-69
2024/01/09 11:43:59;;;;;;;;;;;;;;;-3.69;61.78;96927.88;5055578;28;19936;-67
2024/01/09 11:46:26;;;;;;;;;;;;;;;-3.58;60.10;96930.72;5055439;28;20291;-70
2024/01/09 11:48:53;;;;;;;;;;;;;;;-3.62;61.43;96929.75;5055267;28;20328;-68
2024/01/09 11:51:20;;;;;;;;;;;;;;;-3.66;60.74;96938.19;5055176;28;19922;-69
2024/01/09 11:53:47;;;;;;;;;;;;;;;-3.64;61.61;96938.22;5054036;28;19920;-63
2024/01/09 11:56:16;;;;;;;;;;;;;;;-3.74;60.05;96950.78;5055083;28;19928;-63
2024/01/09 11:58:44;;;;;;;;;;;;;;;-3.95;60.38;96949.41;5054997;28;19971;-66
2024/01/09 12:01:11;;;;;;;;;;;;;;;-4.00;60.87;96950.13;5055076;28;20387;-68
2024/01/09 12:03:38;;;;;;;;;;;;;;;-4.04;62.36;96958.56;5054929;28;19928;-70
2024/01/09 12:06:06;;;;;;;;;;;;;;;-4.11;60.69;96967.72;5054917;28;19928;-67
2024/01/09 12:08:34;;;;;;;;;;;;;;;-4.08;61.38;96963.56;5054941;28;20028;-68
2024/01/09 12:11:01;;;;;;;;;;;;;;;-4.12;59.59;96969.41;5054924;28;19974;-65
2024/01/09 12:13:29;;;;;;;;;;;;;;;-4.19;60.97;96968.38;5054990;28;20298;-69
2024/01/09 12:15:58;;;;;;;;;;;;;;;-4.20;62.04;96968.34;5054978;28;19972;-64
2024/01/09 12:18:25;;;;;;;;;;;;;;;-4.27;60.65;96972.44;5054628;28;20054;-67
2024/01/09 12:20:51;;;;;;;;;;;;;;;-4.38;60.35;96974.69;5054498;28;20345;-69
2024/01/09 12:23:19;;;;;;;;;;;;;;;-4.40;60.39;96973.78;5054646;28;19975;-66
2024/01/09 12:25:48;;;;;;;;;;;;;;;-4.45;61.12;96978.75;5054719;28;19927;-64
2024/01/09 12:28:15;;;;;;;;;;;;;;;-4.48;60.78;96980.38;5054539;28;20007;-65
2024/01/09 12:30:42;;;;;;;;;;;;;;;-4.44;61.85;96988.16;5054246;28;19920;-65
2024/01/09 12:33:11;;;;;;;;;;;;;;;-4.36;60.55;96993.47;5054474;28;19921;-65
2024/01/09 12:35:42;;;;;;;;;;;;;;;-4.44;59.95;96994.94;5054539;28;19943;-67
2024/01/09 12:38:09;;;;;;;;;;;;;;;-4.56;60.64;97003.13;5054216;28;19921;-64
2024/01/09 12:40:35;;;;;;;;;;;;;;;-4.61;61.37;96992.78;5054342;28;19921;-66
2024/01/09 12:43:09;;;;;;;;;;;;;;;-4.63;62.16;97001.22;5054173;28;20291;-67
2024/01/09 12:45:38;;;;;;;;;;;;;;;-4.65;61.74;97000.28;5054150;28;19921;-67
2024/01/09 12:48:07;;;;;;;;;;;;;;;-4.66;61.35;97006.22;5054130;28;19921;-62